Flight Track Log - Related Links

Times and Time Zones

All times are in EDT time to prevent confusion due to time zone crossing. See the N7164N flight status page for this flight to view local times or setup timezone preferences in your user account.

Time Position Orientation Groundspeed Altitude Reporting Facility
EDT Latitude Longitude Course Direction KTS MPH feet Rate Location/Type
Tue 01:09:00 PM 40.0003 -88.5359 259° West  Level Estimated
Tue 01:10:00 PM 39.9938 -88.5789 259° West  Level Estimated
Tue 01:11:00 PM 39.9873 -88.6219 259° West  Level Estimated
Tue 01:11:06 PM 39.9542 -88.6511 259° West 148 170 2,800  Level Kansas City Center
Tue 01:12:00 PM 39.9807 -88.6648 259° West  Level Estimated
Tue 01:12:08 PM 39.9447 -88.7036 257° West 147 169 2,800  Level Kansas City Center
Tue 01:13:00 PM 39.9742 -88.7078 259° West  Level Estimated
Tue 01:13:10 PM 39.9400 -88.7511 263° West 141 162 2,800  Level Kansas City Center
Tue 01:14:00 PM 39.9677 -88.7507 259° West  Level Estimated
Tue 01:14:12 PM 39.9331 -88.8014 260° West 140 161 2,800  Level Kansas City Center
Tue 01:15:00 PM 39.9611 -88.7937 259° West  Level Estimated
Tue 01:15:14 PM 39.9258 -88.8533 260° West 142 163 2,900  Level Kansas City Center
Tue 01:16:00 PM 39.9545 -88.8366 259° West  Level Estimated
Tue 01:16:16 PM 39.9183 -88.9033 259° West 142 163 2,800  Level Kansas City Center
Tue 01:17:18 PM 39.9097 -88.9636 259° West 142 163 2,800 48 Level Kansas City Center
Tue 01:18:21 PM 39.9031 -89.0131 260° West 140 161 2,900  Climbing Kansas City Center
Tue 01:19:23 PM 39.8958 -89.0619 259° West 139 160 2,800 -48 Descending Kansas City Center
Tue 01:20:25 PM 39.8897 -89.1108 261° West 138 159 2,800  Level Kansas City Center
Tue 01:21:27 PM 39.8814 -89.1622 258° West 140 161 2,800  Level Kansas City Center
Tue 01:22:29 PM 39.8744 -89.2119 260° West 140 161 2,800 48 Level Kansas City Center
Tue 01:23:31 PM 39.8658 -89.2697 259° West 139 160 2,900  Climbing Kansas City Center
Tue 01:24:33 PM 39.8583 -89.3203 259° West 139 160 2,800 -48 Descending Kansas City Center
Tue 01:25:35 PM 39.8517 -89.3706 260° West 140 161 2,800 48 Level Kansas City Center
Tue 01:26:37 PM 39.8450 -89.4192 260° West 139 160 2,900 48 Climbing Kansas City Center
Tue 01:27:39 PM 39.8372 -89.4686 258° West 139 160 2,900  Level Kansas City Center
Tue 01:28:41 PM 39.8303 -89.5206 260° West 141 162 2,900 -48 Level Kansas City Center
Tue 01:29:43 PM 39.8225 -89.5719 259° West 143 165 2,800  Descending Kansas City Center
Tue 01:30:45 PM 39.8131 -89.6325 259° West 143 165 2,900  Climbing Kansas City Center
Tue 01:31:47 PM 39.8056 -89.6833 259° West 143 165 2,800  Descending Kansas City Center
Tue 01:32:49 PM 39.7989 -89.7347 260° West 143 165 2,900 48 Climbing Kansas City Center
Tue 01:33:51 PM 39.7914 -89.7850 259° West 143 165 2,900 -48 Level Kansas City Center
Tue 01:34:53 PM 39.7839 -89.8342 259° West 141 162 2,800 -48 Descending Kansas City Center
Tue 01:35:55 PM 39.7753 -89.8875 258° West 145 167 2,800 48 Level Kansas City Center
Tue 01:36:57 PM 39.7658 -89.9478 258° West 145 167 2,900 97 Climbing Kansas City Center

Login

Don't have an account? Register now (free) for customized features, flight alerts, and more!